Time;durP1;ratioP1;P1;durP2;ratioP2;P2;SDS_P1;SDS_P2;PMS_P1;PMS_P2;Temp;Humidity;BMP_temperature;BMP_pressure;BME280_temperature;BME280_humidity;BME280_pressure;Samples;Min_cycle;Max_cycle;Signal;HPM_P1;HPM_P2
2024/01/10 00:00:22;;;;;;;0.00;0.00;;;;;;;;;;653587;217;32378;-82
2024/01/10 00:05:44;;;;;;;0.00;0.00;;;;;;;;;;645095;217;32465;-82
2024/01/10 00:11:06;;;;;;;0.00;0.00;;;;;;;;;;653530;218;32426;-82
2024/01/10 00:16:29;;;;;;;0.00;0.00;;;;;;;;;;645104;218;32374;-83
2024/01/10 00:21:51;;;;;;;0.00;0.00;;;;;;;;;;645043;217;32402;-82
2024/01/10 00:27:13;;;;;;;0.00;0.00;;;;;;;;;;643592;217;32358;-82
2024/01/10 00:32:35;;;;;;;0.00;0.00;;;;;;;;;;645084;218;32376;-82
2024/01/10 00:37:58;;;;;;;0.00;0.00;;;;;;;;;;645080;217;32373;-82
2024/01/10 00:43:20;;;;;;;0.00;0.00;;;;;;;;;;645060;217;32410;-82
2024/01/10 00:48:42;;;;;;;0.00;0.00;;;;;;;;;;645058;217;32439;-82
2024/01/10 00:54:04;;;;;;;0.00;0.00;;;;;;;;;;645016;217;32388;-82
2024/01/10 00:59:27;;;;;;;0.00;0.00;;;;;;;;;;653352;217;32355;-82
2024/01/10 01:04:49;;;;;;;0.00;0.00;;;;;;;;;;653561;217;32354;-83
2024/01/10 01:10:11;;;;;;;0.00;0.00;;;;;;;;;;645089;218;32462;-82
2024/01/10 01:15:33;;;;;;;0.00;0.00;;;;;;;;;;645037;218;32374;-82
2024/01/10 01:20:55;;;;;;;0.00;0.00;;;;;;;;;;645077;217;32394;-82
2024/01/10 01:26:17;;;;;;;0.00;0.00;;;;;;;;;;650331;217;32879;-82
2024/01/10 01:31:39;;;;;;;0.00;0.00;;;;;;;;;;643399;218;32370;-82
2024/01/10 01:37:01;;;;;;;0.00;0.00;;;;;;;;;;653561;217;32380;-83
2024/01/10 01:42:23;;;;;;;0.00;0.00;;;;;;;;;;645068;217;32405;-81
2024/01/10 01:47:45;;;;;;;0.00;0.00;;;;;;;;;;645097;218;32388;-82
2024/01/10 01:53:07;;;;;;;0.00;0.00;;;;;;;;;;645036;217;32354;-82
2024/01/10 01:58:29;;;;;;;0.00;0.00;;;;;;;;;;645028;218;32423;-81
2024/01/10 02:03:52;;;;;;;0.00;0.00;;;;;;;;;;645066;217;32786;-82
2024/01/10 02:09:14;;;;;;;0.00;0.00;;;;;;;;;;645040;218;32334;-82
2024/01/10 02:14:35;;;;;;;0.00;0.00;;;;;;;;;;645069;217;32363;-82
2024/01/10 02:19:58;;;;;;;0.00;0.00;;;;;;;;;;645048;217;32375;-82
2024/01/10 02:25:21;;;;;;;0.00;0.00;;;;;;;;;;653568;218;32376;-82
2024/01/10 02:30:42;;;;;;;0.00;0.00;;;;;;;;;;653602;217;32347;-81
2024/01/10 02:36:05;;;;;;;0.00;0.00;;;;;;;;;;653573;218;32390;-81
2024/01/10 02:41:27;;;;;;;0.00;0.00;;;;;;;;;;645051;217;32350;-82
2024/01/10 02:46:52;;;;;;;0.00;0.00;;;;;;;;;;645067;218;32368;-82
2024/01/10 02:52:13;;;;;;;0.00;0.00;;;;;;;;;;653533;218;32416;-81
2024/01/10 02:57:35;;;;;;;0.00;0.00;;;;;;;;;;653574;217;32384;-81
2024/01/10 03:02:58;;;;;;;0.00;0.00;;;;;;;;;;645064;218;32755;-82
2024/01/10 03:08:20;;;;;;;0.00;0.00;;;;;;;;;;645083;218;32343;-82
2024/01/10 03:13:41;;;;;;;0.00;0.00;;;;;;;;;;645080;218;32426;-81
2024/01/10 03:19:03;;;;;;;0.00;0.00;;;;;;;;;;645086;217;32339;-81
2024/01/10 03:24:26;;;;;;;0.00;0.00;;;;;;;;;;645091;218;32485;-81
2024/01/10 03:29:47;;;;;;;0.00;0.00;;;;;;;;;;645004;218;32442;-81
2024/01/10 03:35:10;;;;;;;0.00;0.00;;;;;;;;;;645056;218;32736;-82
2024/01/10 03:40:32;;;;;;;0.00;0.00;;;;;;;;;;653572;217;32444;-82
2024/01/10 03:45:54;;;;;;;0.00;0.00;;;;;;;;;;645127;218;32359;-81
2024/01/10 03:51:17;;;;;;;0.00;0.00;;;;;;;;;;645060;217;32409;-81
2024/01/10 03:56:38;;;;;;;0.00;0.00;;;;;;;;;;653597;217;32348;-81
2024/01/10 04:02:01;;;;;;;0.00;0.00;;;;;;;;;;645045;218;32348;-91
2024/01/10 04:07:24;;;;;;;0.00;0.00;;;;;;;;;;653525;218;32459;-81
2024/01/10 04:12:47;;;;;;;0.00;0.00;;;;;;;;;;645055;214;32400;-80
2024/01/10 04:18:09;;;;;;;0.00;0.00;;;;;;;;;;645060;217;32469;-80
2024/01/10 04:23:33;;;;;;;0.00;0.00;;;;;;;;;;653552;218;33377;-80
2024/01/10 04:28:53;;;;;;;0.00;0.00;;;;;;;;;;645083;218;32409;-80
2024/01/10 04:34:19;;;;;;;0.00;0.00;;;;;;;;;;644946;214;32743;-91
2024/01/10 04:39:42;;;;;;;0.00;0.00;;;;;;;;;;643593;218;32392;-80
2024/01/10 04:45:04;;;;;;;0.00;0.00;;;;;;;;;;644994;217;32383;-80
2024/01/10 04:50:27;;;;;;;0.00;0.00;;;;;;;;;;645034;218;32387;-80
2024/01/10 04:55:53;;;;;;;0.00;0.00;;;;;;;;;;645043;217;32383;-79
2024/01/10 05:01:15;;;;;;;0.00;0.00;;;;;;;;;;645093;217;32363;-80
2024/01/10 05:06:37;;;;;;;0.00;0.00;;;;;;;;;;645085;217;32396;-80
2024/01/10 05:11:59;;;;;;;0.00;0.00;;;;;;;;;;645045;218;32423;-80
2024/01/10 05:17:21;;;;;;;0.00;0.00;;;;;;;;;;645068;218;32378;-79
2024/01/10 05:22:43;;;;;;;0.00;0.00;;;;;;;;;;645044;217;32811;-79
2024/01/10 05:28:06;;;;;;;0.00;0.00;;;;;;;;;;645094;217;32427;-80
2024/01/10 05:33:28;;;;;;;0.00;0.00;;;;;;;;;;645041;217;32401;-81
2024/01/10 05:38:51;;;;;;;0.00;0.00;;;;;;;;;;650076;218;32853;-79
2024/01/10 05:44:13;;;;;;;0.00;0.00;;;;;;;;;;645067;218;32409;-79
2024/01/10 05:49:34;;;;;;;0.00;0.00;;;;;;;;;;645060;218;32403;-80
2024/01/10 05:54:56;;;;;;;0.00;0.00;;;;;;;;;;645077;217;32413;-79
2024/01/10 06:00:20;;;;;;;0.00;0.00;;;;;;;;;;644995;217;32461;-79
2024/01/10 06:05:40;;;;;;;0.00;0.00;;;;;;;;;;645022;218;32492;-79
2024/01/10 06:11:08;;;;;;;0.00;0.00;;;;;;;;;;645034;217;32417;-79
2024/01/10 06:16:28;;;;;;;0.00;0.00;;;;;;;;;;645096;217;32699;-79
2024/01/10 06:21:51;;;;;;;0.00;0.00;;;;;;;;;;645053;217;32403;-78
2024/01/10 06:27:13;;;;;;;0.00;0.00;;;;;;;;;;643519;218;32359;-78
2024/01/10 06:32:35;;;;;;;0.00;0.00;;;;;;;;;;645041;217;32398;-78
2024/01/10 06:37:57;;;;;;;0.00;0.00;;;;;;;;;;645018;217;32348;-78
2024/01/10 06:43:20;;;;;;;0.00;0.00;;;;;;;;;;653496;218;32375;-77
2024/01/10 06:48:42;;;;;;;0.00;0.00;;;;;;;;;;645037;218;32366;-78
2024/01/10 06:54:05;;;;;;;0.00;0.00;;;;;;;;;;645043;217;32392;-77
2024/01/10 06:59:27;;;;;;;0.00;0.00;;;;;;;;;;645056;217;32422;-76
2024/01/10 07:04:50;;;;;;;0.00;0.00;;;;;;;;;;645010;217;32385;-77
2024/01/10 07:10:11;;;;;;;0.00;0.00;;;;;;;;;;653553;217;32396;-80
2024/01/10 07:15:34;;;;;;;0.00;0.00;;;;;;;;;;645007;217;32381;-77
2024/01/10 07:20:56;;;;;;;0.00;0.00;;;;;;;;;;653521;218;32352;-77
2024/01/10 07:26:18;;;;;;;0.00;0.00;;;;;;;;;;653546;217;32360;-77
2024/01/10 07:31:40;;;;;;;0.00;0.00;;;;;;;;;;644997;217;32727;-77
2024/01/10 07:37:03;;;;;;;0.00;0.00;;;;;;;;;;653463;218;32436;-77
2024/01/10 07:42:24;;;;;;;0.00;0.00;;;;;;;;;;653486;213;32463;-77
2024/01/10 07:47:47;;;;;;;0.00;0.00;;;;;;;;;;645034;218;32377;-77
2024/01/10 07:53:09;;;;;;;0.00;0.00;;;;;;;;;;653448;218;32372;-77
2024/01/10 07:58:31;;;;;;;0.00;0.00;;;;;;;;;;645044;217;32363;-77
2024/01/10 08:03:52;;;;;;;0.00;0.00;;;;;;;;;;645004;217;32767;-77
2024/01/10 08:09:15;;;;;;;0.00;0.00;;;;;;;;;;649349;217;32840;-77
2024/01/10 08:14:37;;;;;;;0.00;0.00;;;;;;;;;;645003;217;32377;-77
2024/01/10 08:20:00;;;;;;;0.00;0.00;;;;;;;;;;645090;218;32350;-75
2024/01/10 08:25:22;;;;;;;0.00;0.00;;;;;;;;;;645010;218;32447;-77
2024/01/10 08:30:45;;;;;;;0.00;0.00;;;;;;;;;;653523;217;32394;-76
2024/01/10 08:36:09;;;;;;;0.00;0.00;;;;;;;;;;645061;218;32376;-77
2024/01/10 08:41:30;;;;;;;0.00;0.00;;;;;;;;;;645069;217;32399;-77
2024/01/10 08:46:52;;;;;;;0.00;0.00;;;;;;;;;;640175;217;32575;-77
2024/01/10 08:52:14;;;;;;;0.00;0.00;;;;;;;;;;645049;218;32447;-78
2024/01/10 08:57:36;;;;;;;0.00;0.00;;;;;;;;;;653560;217;32364;-80
2024/01/10 09:02:59;;;;;;;0.00;0.00;;;;;;;;;;645041;217;32447;-79
2024/01/10 09:08:21;;;;;;;0.00;0.00;;;;;;;;;;653494;218;32376;-80
2024/01/10 09:13:46;;;;;;;0.00;0.00;;;;;;;;;;644984;217;32371;-80
2024/01/10 09:19:10;;;;;;;0.00;0.00;;;;;;;;;;653508;217;32360;-81
2024/01/10 09:24:35;;;;;;;0.00;0.00;;;;;;;;;;630352;221;32696;-91
2024/01/10 09:30:01;;;;;;;0.00;0.00;;;;;;;;;;644837;218;32363;-82
2024/01/10 09:35:25;;;;;;;0.00;0.00;;;;;;;;;;644941;217;33327;-83
2024/01/10 09:40:53;;;;;;;0.00;0.00;;;;;;;;;;644630;217;32336;-83
2024/01/10 09:46:17;;;;;;;0.00;0.00;;;;;;;;;;645035;218;32394;-82
2024/01/10 09:51:40;;;;;;;0.00;0.00;;;;;;;;;;644764;218;32354;-82
2024/01/10 09:57:04;;;;;;;0.00;0.00;;;;;;;;;;644917;217;32432;-81
2024/01/10 10:02:26;;;;;;;0.00;0.00;;;;;;;;;;653509;217;32387;-82
2024/01/10 10:07:50;;;;;;;0.00;0.00;;;;;;;;;;645053;218;32416;-81
2024/01/10 10:13:12;;;;;;;0.00;0.00;;;;;;;;;;644961;218;32363;-81
2024/01/10 10:18:36;;;;;;;0.00;0.00;;;;;;;;;;644849;218;32424;-81
2024/01/10 10:24:03;;;;;;;0.00;0.00;;;;;;;;;;644991;217;33360;-81
2024/01/10 10:29:23;;;;;;;0.00;0.00;;;;;;;;;;653470;217;32360;-81
2024/01/10 10:34:46;;;;;;;0.00;0.00;;;;;;;;;;641947;218;32361;-80
2024/01/10 10:40:09;;;;;;;0.00;0.00;;;;;;;;;;646574;218;32411;-80
2024/01/10 10:45:31;;;;;;;0.00;0.00;;;;;;;;;;653448;218;32359;-80
2024/01/10 10:50:52;;;;;;;0.00;0.00;;;;;;;;;;644970;217;32467;-79
2024/01/10 10:56:14;;;;;;;0.00;0.00;;;;;;;;;;640456;217;32529;-79
2024/01/10 11:01:37;;;;;;;0.00;0.00;;;;;;;;;;645046;218;32372;-79
2024/01/10 11:06:59;;;;;;;0.00;0.00;;;;;;;;;;644966;217;32388;-78
2024/01/10 11:12:21;;;;;;;0.00;0.00;;;;;;;;;;645036;218;32369;-78
2024/01/10 11:17:46;;;;;;;0.00;0.00;;;;;;;;;;645065;218;32374;-78
2024/01/10 11:23:20;;;;;;;0.00;0.00;;;;;;;;;;647401;217;33301;-77
2024/01/10 11:28:41;;;;;;;0.00;0.00;;;;;;;;;;645033;217;32412;-77
2024/01/10 11:34:03;;;;;;;0.00;0.00;;;;;;;;;;644930;218;32393;-77
2024/01/10 11:39:26;;;;;;;0.00;0.00;;;;;;;;;;650088;218;32336;-77
2024/01/10 11:44:47;;;;;;;0.00;0.00;;;;;;;;;;653492;217;32372;-77
2024/01/10 11:50:09;;;;;;;0.00;0.00;;;;;;;;;;645039;217;32324;-77
2024/01/10 11:55:30;;;;;;;0.00;0.00;;;;;;;;;;645013;218;32376;-77
2024/01/10 12:00:59;;;;;;;0.00;0.00;;;;;;;;;;653523;218;32350;-77
2024/01/10 12:06:21;;;;;;;0.00;0.00;;;;;;;;;;644683;217;32362;-77
2024/01/10 12:11:43;;;;;;;0.00;0.00;;;;;;;;;;645065;217;33322;-77
2024/01/10 12:17:06;;;;;;;0.00;0.00;;;;;;;;;;645064;218;32349;-76
2024/01/10 12:22:27;;;;;;;0.00;0.00;;;;;;;;;;653529;217;32391;-77
2024/01/10 12:27:49;;;;;;;0.00;0.00;;;;;;;;;;641492;218;32683;-77
2024/01/10 12:33:11;;;;;;;0.00;0.00;;;;;;;;;;653433;217;32373;-76
2024/01/10 12:38:33;;;;;;;0.00;0.00;;;;;;;;;;644514;217;32309;-77
2024/01/10 12:43:55;;;;;;;0.00;0.00;;;;;;;;;;645020;218;32375;-77
2024/01/10 12:49:18;;;;;;;0.00;0.00;;;;;;;;;;644998;218;34367;-76
2024/01/10 12:54:40;;;;;;;0.00;0.00;;;;;;;;;;653499;218;32372;-77
2024/01/10 13:00:06;;;;;;;0.00;0.00;;;;;;;;;;645010;217;32398;-76
2024/01/10 13:05:26;;;;;;;0.00;0.00;;;;;;;;;;645082;218;32364;-77
2024/01/10 13:10:48;;;;;;;0.00;0.00;;;;;;;;;;645018;218;32742;-77
2024/01/10 13:16:11;;;;;;;0.00;0.00;;;;;;;;;;645010;217;32383;-79
2024/01/10 13:21:33;;;;;;;0.00;0.00;;;;;;;;;;644983;218;32383;-77
2024/01/10 13:26:55;;;;;;;0.00;0.00;;;;;;;;;;645002;218;32432;-77
2024/01/10 13:32:17;;;;;;;0.00;0.00;;;;;;;;;;645010;218;32383;-78
2024/01/10 13:37:39;;;;;;;0.00;0.00;;;;;;;;;;645073;217;32449;-77
2024/01/10 13:43:03;;;;;;;0.00;0.00;;;;;;;;;;653481;218;32361;-77
2024/01/10 13:48:25;;;;;;;0.00;0.00;;;;;;;;;;653554;218;32352;-77
2024/01/10 13:53:47;;;;;;;0.00;0.00;;;;;;;;;;645010;218;32351;-77
2024/01/10 13:59:09;;;;;;;0.00;0.00;;;;;;;;;;653491;217;32401;-78
2024/01/10 14:04:31;;;;;;;0.00;0.00;;;;;;;;;;645009;218;32356;-77
2024/01/10 14:09:54;;;;;;;0.00;0.00;;;;;;;;;;645055;218;32368;-77
2024/01/10 14:15:16;;;;;;;0.00;0.00;;;;;;;;;;653545;218;32831;-77
2024/01/10 14:20:38;;;;;;;0.00;0.00;;;;;;;;;;645096;218;32366;-77
2024/01/10 14:26:00;;;;;;;0.00;0.00;;;;;;;;;;639340;217;33605;-78
2024/01/10 14:31:22;;;;;;;0.00;0.00;;;;;;;;;;637037;218;32475;-78
2024/01/10 14:36:44;;;;;;;0.00;0.00;;;;;;;;;;645041;218;32379;-78
2024/01/10 14:42:07;;;;;;;0.00;0.00;;;;;;;;;;633824;218;33622;-78
2024/01/10 14:47:29;;;;;;;0.00;0.00;;;;;;;;;;647770;218;33330;-78
2024/01/10 14:52:52;;;;;;;0.00;0.00;;;;;;;;;;645038;217;32468;-78
2024/01/10 14:58:17;;;;;;;0.00;0.00;;;;;;;;;;645027;218;32375;-78
2024/01/10 15:03:38;;;;;;;0.00;0.00;;;;;;;;;;648051;218;32331;-78
2024/01/10 15:09:01;;;;;;;0.00;0.00;;;;;;;;;;653510;217;32363;-78
2024/01/10 15:14:24;;;;;;;0.00;0.00;;;;;;;;;;644996;214;32444;-78
2024/01/10 15:19:51;;;;;;;0.00;0.00;;;;;;;;;;632822;217;32335;-78
2024/01/10 15:25:13;;;;;;;0.00;0.00;;;;;;;;;;645024;218;33329;-79
2024/01/10 15:30:36;;;;;;;0.00;0.00;;;;;;;;;;645056;217;32380;-78
2024/01/10 15:35:58;;;;;;;0.00;0.00;;;;;;;;;;653555;218;32739;-79
2024/01/10 15:41:20;;;;;;;0.00;0.00;;;;;;;;;;645033;217;32387;-79
2024/01/10 15:46:42;;;;;;;0.00;0.00;;;;;;;;;;644909;218;32355;-79
2024/01/10 15:52:04;;;;;;;0.00;0.00;;;;;;;;;;644824;217;32378;-79
2024/01/10 15:57:29;;;;;;;0.00;0.00;;;;;;;;;;644946;218;33333;-79
2024/01/10 16:02:52;;;;;;;0.00;0.00;;;;;;;;;;653540;217;32363;-81
2024/01/10 16:08:14;;;;;;;0.00;0.00;;;;;;;;;;653492;217;32389;-79
2024/01/10 16:13:36;;;;;;;0.00;0.00;;;;;;;;;;645042;218;32418;-79
2024/01/10 16:18:59;;;;;;;0.00;0.00;;;;;;;;;;644975;217;32808;-79
2024/01/10 16:24:20;;;;;;;0.00;0.00;;;;;;;;;;645039;217;32363;-79
2024/01/10 16:29:44;;;;;;;0.00;0.00;;;;;;;;;;645008;218;32807;-79
2024/01/10 16:35:07;;;;;;;0.00;0.00;;;;;;;;;;645030;218;32366;-78
2024/01/10 16:40:28;;;;;;;0.00;0.00;;;;;;;;;;645009;214;33372;-78
2024/01/10 16:45:51;;;;;;;0.00;0.00;;;;;;;;;;645020;218;32404;-79
2024/01/10 16:51:13;;;;;;;0.00;0.00;;;;;;;;;;645010;217;32372;-78
2024/01/10 16:56:36;;;;;;;0.00;0.00;;;;;;;;;;653527;217;32401;-79
2024/01/10 17:01:57;;;;;;;0.00;0.00;;;;;;;;;;653530;217;33393;-78
2024/01/10 17:07:19;;;;;;;0.00;0.00;;;;;;;;;;645047;218;32343;-79
2024/01/10 17:12:41;;;;;;;0.00;0.00;;;;;;;;;;653533;217;32380;-78
2024/01/10 17:18:04;;;;;;;0.00;0.00;;;;;;;;;;653563;218;32391;-77
2024/01/10 17:23:26;;;;;;;0.00;0.00;;;;;;;;;;645044;217;32367;-78
2024/01/10 17:28:49;;;;;;;0.00;0.00;;;;;;;;;;642399;217;32439;-78
2024/01/10 17:34:10;;;;;;;0.00;0.00;;;;;;;;;;650402;218;32356;-77
2024/01/10 17:39:33;;;;;;;0.00;0.00;;;;;;;;;;641444;218;32488;-77
2024/01/10 17:44:54;;;;;;;0.00;0.00;;;;;;;;;;653493;218;32383;-80
2024/01/10 17:50:18;;;;;;;0.00;0.00;;;;;;;;;;645043;217;32423;-78
2024/01/10 17:55:38;;;;;;;0.00;0.00;;;;;;;;;;653512;218;32420;-78
2024/01/10 18:01:01;;;;;;;0.00;0.00;;;;;;;;;;653559;217;32345;-77
2024/01/10 18:06:23;;;;;;;0.00;0.00;;;;;;;;;;645047;218;32399;-79
2024/01/10 18:11:46;;;;;;;0.00;0.00;;;;;;;;;;653552;218;32378;-77
2024/01/10 18:17:08;;;;;;;0.00;0.00;;;;;;;;;;644990;217;33357;-78
2024/01/10 18:22:30;;;;;;;0.00;0.00;;;;;;;;;;645032;218;32391;-77
2024/01/10 18:27:51;;;;;;;0.00;0.00;;;;;;;;;;641247;218;32391;-77
2024/01/10 18:33:13;;;;;;;0.00;0.00;;;;;;;;;;646224;217;31707;-77
2024/01/10 18:38:35;;;;;;;0.00;0.00;;;;;;;;;;645051;218;32348;-77
2024/01/10 18:43:58;;;;;;;0.00;0.00;;;;;;;;;;641406;217;32184;-80
2024/01/10 18:49:23;;;;;;;0.00;0.00;;;;;;;;;;645029;218;32324;-79
2024/01/10 18:54:45;;;;;;;0.00;0.00;;;;;;;;;;645028;217;32356;-77
2024/01/10 19:00:09;;;;;;;0.00;0.00;;;;;;;;;;653557;218;32362;-77
2024/01/10 19:05:29;;;;;;;0.00;0.00;;;;;;;;;;653519;218;32417;-79
2024/01/10 19:10:51;;;;;;;0.00;0.00;;;;;;;;;;651437;218;32505;-77
2024/01/10 19:16:14;;;;;;;0.00;0.00;;;;;;;;;;640222;218;32558;-77
2024/01/10 19:21:36;;;;;;;0.00;0.00;;;;;;;;;;641890;218;32361;-77
2024/01/10 19:26:58;;;;;;;0.00;0.00;;;;;;;;;;633977;217;32457;-77
2024/01/10 19:32:19;;;;;;;0.00;0.00;;;;;;;;;;646339;217;32319;-79
2024/01/10 19:37:42;;;;;;;0.00;0.00;;;;;;;;;;645053;218;32383;-79
2024/01/10 19:43:04;;;;;;;0.00;0.00;;;;;;;;;;645055;217;32362;-79
2024/01/10 19:48:25;;;;;;;0.00;0.00;;;;;;;;;;639509;218;32486;-77
2024/01/10 19:53:48;;;;;;;0.00;0.00;;;;;;;;;;640171;217;32335;-79
2024/01/10 19:59:11;;;;;;;0.00;0.00;;;;;;;;;;641836;217;32524;-79
2024/01/10 20:04:34;;;;;;;0.00;0.00;;;;;;;;;;640587;218;32486;-77
2024/01/10 20:09:58;;;;;;;0.00;0.00;;;;;;;;;;645011;217;33345;-80
2024/01/10 20:15:20;;;;;;;0.00;0.00;;;;;;;;;;645042;218;32388;-77
2024/01/10 20:20:42;;;;;;;0.00;0.00;;;;;;;;;;645030;218;32412;-77
2024/01/10 20:26:04;;;;;;;0.00;0.00;;;;;;;;;;645063;217;32378;-77
2024/01/10 20:31:26;;;;;;;0.00;0.00;;;;;;;;;;638319;218;32528;-80
2024/01/10 20:36:48;;;;;;;0.00;0.00;;;;;;;;;;653550;217;32361;-79
2024/01/10 20:42:09;;;;;;;0.00;0.00;;;;;;;;;;653552;217;32394;-79
2024/01/10 20:47:32;;;;;;;0.00;0.00;;;;;;;;;;645042;218;32389;-79
2024/01/10 20:52:54;;;;;;;0.00;0.00;;;;;;;;;;634035;218;32605;-77
2024/01/10 20:58:16;;;;;;;0.00;0.00;;;;;;;;;;653561;218;32380;-77
2024/01/10 21:03:38;;;;;;;0.00;0.00;;;;;;;;;;653498;218;32373;-79
2024/01/10 21:09:01;;;;;;;0.00;0.00;;;;;;;;;;645067;218;32453;-77
2024/01/10 21:14:23;;;;;;;0.00;0.00;;;;;;;;;;645039;217;32350;-79
2024/01/10 21:19:45;;;;;;;0.00;0.00;;;;;;;;;;644981;218;32376;-77
2024/01/10 21:25:07;;;;;;;0.00;0.00;;;;;;;;;;653507;218;33327;-77
2024/01/10 21:30:30;;;;;;;0.00;0.00;;;;;;;;;;645035;217;32381;-79
2024/01/10 21:35:52;;;;;;;0.00;0.00;;;;;;;;;;645063;218;32384;-77
2024/01/10 21:41:14;;;;;;;0.00;0.00;;;;;;;;;;645259;217;32487;-77
2024/01/10 21:46:37;;;;;;;0.00;0.00;;;;;;;;;;653545;217;32408;-79
2024/01/10 21:51:59;;;;;;;0.00;0.00;;;;;;;;;;645052;217;32405;-78
2024/01/10 21:57:22;;;;;;;0.00;0.00;;;;;;;;;;645045;218;32380;-78
2024/01/10 22:02:44;;;;;;;0.00;0.00;;;;;;;;;;645010;217;32778;-79
2024/01/10 22:08:09;;;;;;;0.00;0.00;;;;;;;;;;645078;218;32387;-77
2024/01/10 22:13:29;;;;;;;0.00;0.00;;;;;;;;;;653506;218;32368;-80
2024/01/10 22:18:50;;;;;;;0.00;0.00;;;;;;;;;;645086;218;32370;-80
2024/01/10 22:24:12;;;;;;;0.00;0.00;;;;;;;;;;644973;218;32408;-80
2024/01/10 22:29:37;;;;;;;0.00;0.00;;;;;;;;;;645079;217;32393;-80
2024/01/10 22:34:59;;;;;;;0.00;0.00;;;;;;;;;;642118;217;32515;-80
2024/01/10 22:40:21;;;;;;;0.00;0.00;;;;;;;;;;641214;217;32385;-81
2024/01/10 22:45:44;;;;;;;0.00;0.00;;;;;;;;;;645058;218;32350;-78
2024/01/10 22:51:08;;;;;;;0.00;0.00;;;;;;;;;;645045;218;32418;-80
2024/01/10 22:56:30;;;;;;;0.00;0.00;;;;;;;;;;653532;217;32357;-78
2024/01/10 23:01:53;;;;;;;0.00;0.00;;;;;;;;;;653550;218;32413;-78
2024/01/10 23:07:15;;;;;;;0.00;0.00;;;;;;;;;;645068;218;32360;-80
2024/01/10 23:12:37;;;;;;;0.00;0.00;;;;;;;;;;653561;217;33335;-78
2024/01/10 23:18:00;;;;;;;0.00;0.00;;;;;;;;;;645038;217;32377;-80
2024/01/10 23:23:22;;;;;;;0.00;0.00;;;;;;;;;;653544;218;32353;-78
2024/01/10 23:28:44;;;;;;;0.00;0.00;;;;;;;;;;653464;218;32380;-78
2024/01/10 23:34:09;;;;;;;0.00;0.00;;;;;;;;;;645071;218;32372;-80
2024/01/10 23:39:31;;;;;;;0.00;0.00;;;;;;;;;;645537;218;32367;-80
2024/01/10 23:44:53;;;;;;;0.00;0.00;;;;;;;;;;653502;218;32432;-80
2024/01/10 23:50:15;;;;;;;0.00;0.00;;;;;;;;;;653566;213;32386;-82
2024/01/10 23:55:37;;;;;;;0.00;0.00;;;;;;;;;;653540;217;32432;-80
